Time;durP1;ratioP1;P1;durP2;ratioP2;P2;SDS_P1;SDS_P2;PMS_P1;PMS_P2;Temp;Humidity;BMP_temperature;BMP_pressure;BME280_temperature;BME280_humidity;BME280_pressure;Samples;Min_cycle;Max_cycle;Signal;HPM_P1;HPM_P2
2022/03/26 00:01:29;;;;;;;;;;;;;;;5.88;85.73;103347.38;4979404;28;20396;-73
2022/03/26 00:03:54;;;;;;;;;;;;;;;5.79;84.91;103347.25;4984222;28;19965;-73
2022/03/26 00:06:19;;;;;;;;;;;;;;;5.77;85.49;103348.94;4980847;28;19937;-71
2022/03/26 00:08:48;;;;;;;;;;;;;;;5.74;85.16;103352.41;4981708;28;20382;-72
2022/03/26 00:11:13;;;;;;;;;;;;;;;5.72;86.12;103357.59;4981690;28;19922;-72
2022/03/26 00:13:39;;;;;;;;;;;;;;;5.76;85.56;103353.31;4980688;28;19930;-71
2022/03/26 00:16:05;;;;;;;;;;;;;;;5.75;85.76;103355.88;4975759;28;20009;-72
2022/03/26 00:18:30;;;;;;;;;;;;;;;5.78;86.30;103355.94;4983225;28;20000;-72
2022/03/26 00:20:55;;;;;;;;;;;;;;;5.76;86.48;103353.31;4982712;28;19973;-72
2022/03/26 00:23:20;;;;;;;;;;;;;;;5.76;86.28;103352.41;4982050;28;20021;-72
2022/03/26 00:25:46;;;;;;;;;;;;;;;5.73;86.27;103356.72;4986439;28;19933;-72
2022/03/26 00:28:11;;;;;;;;;;;;;;;5.68;86.52;103357.50;4987909;28;19926;-72
2022/03/26 00:30:36;;;;;;;;;;;;;;;5.58;85.57;103348.69;4984497;28;19922;-72
2022/03/26 00:33:02;;;;;;;;;;;;;;;5.58;86.37;103356.50;4987017;28;20004;-71
2022/03/26 00:35:27;;;;;;;;;;;;;;;5.57;86.47;103353.00;4983275;28;19929;-73
2022/03/26 00:37:53;;;;;;;;;;;;;;;5.61;86.67;103363.50;4982134;28;19918;-72
2022/03/26 00:40:18;;;;;;;;;;;;;;;5.56;86.63;103355.63;4978825;28;20267;-71
2022/03/26 00:42:44;;;;;;;;;;;;;;;5.54;86.22;103358.22;4960522;28;19972;-72
2022/03/26 00:45:10;;;;;;;;;;;;;;;5.53;86.57;103352.94;4996327;28;19918;-72
2022/03/26 00:47:35;;;;;;;;;;;;;;;5.53;86.65;103356.44;4986936;28;19918;-72
2022/03/26 00:50:00;;;;;;;;;;;;;;;5.52;86.99;103359.91;4967574;28;19928;-72
2022/03/26 00:52:26;;;;;;;;;;;;;;;5.47;86.83;103350.25;4983005;28;19922;-71
2022/03/26 00:54:51;;;;;;;;;;;;;;;5.50;86.65;103352.94;4981492;28;19925;-71
2022/03/26 00:57:17;;;;;;;;;;;;;;;5.47;87.08;103351.13;4983896;28;19929;-71
2022/03/26 00:59:43;;;;;;;;;;;;;;;5.55;87.53;103353.84;4986063;28;19922;-71
2022/03/26 01:02:08;;;;;;;;;;;;;;;5.49;86.65;103357.25;4990667;28;19925;-70
2022/03/26 01:04:33;;;;;;;;;;;;;;;5.44;86.61;103345.00;5005829;28;19925;-71
2022/03/26 01:06:58;;;;;;;;;;;;;;;5.44;87.36;103350.22;5010944;28;19956;-71
2022/03/26 01:09:24;;;;;;;;;;;;;;;5.38;86.96;103356.19;4980941;28;19922;-72
2022/03/26 01:11:49;;;;;;;;;;;;;;;5.33;87.24;103350.06;4978497;28;19924;-72
2022/03/26 01:14:14;;;;;;;;;;;;;;;5.32;87.40;103350.91;4991356;28;19917;-71
2022/03/26 01:16:39;;;;;;;;;;;;;;;5.28;86.74;103347.38;4991090;28;19925;-70
2022/03/26 01:19:05;;;;;;;;;;;;;;;5.22;87.38;103344.66;4991009;28;19918;-71
2022/03/26 01:21:30;;;;;;;;;;;;;;;5.20;87.46;103351.56;4988925;28;19979;-71
2022/03/26 01:23:56;;;;;;;;;;;;;;;5.18;87.28;103351.56;4982125;28;19921;-72
2022/03/26 01:26:21;;;;;;;;;;;;;;;5.18;88.12;103346.34;4989777;28;19917;-72
2022/03/26 01:28:46;;;;;;;;;;;;;;;5.19;87.64;103345.50;4990227;28;19971;-72
2022/03/26 01:31:12;;;;;;;;;;;;;;;5.14;87.87;103344.53;4986013;28;20377;-72
2022/03/26 01:33:37;;;;;;;;;;;;;;;5.11;87.59;103341.88;4986149;28;19932;-71
2022/03/26 01:36:03;;;;;;;;;;;;;;;5.06;87.47;103349.63;4999999;28;19933;-73
2022/03/26 01:38:28;;;;;;;;;;;;;;;5.03;87.72;103351.28;4992247;28;19929;-72
2022/03/26 01:40:53;;;;;;;;;;;;;;;5.00;88.19;103352.13;4991913;28;19922;-72
2022/03/26 01:43:19;;;;;;;;;;;;;;;5.04;88.52;103350.44;4989161;28;19918;-72
2022/03/26 01:45:44;;;;;;;;;;;;;;;5.03;88.88;103349.56;4989148;28;20025;-71
2022/03/26 01:48:10;;;;;;;;;;;;;;;5.06;89.27;103347.03;4989270;28;19924;-72
2022/03/26 01:50:35;;;;;;;;;;;;;;;5.08;89.01;103350.50;4987769;28;19917;-71
2022/03/26 01:53:01;;;;;;;;;;;;;;;5.06;88.97;103344.41;4989645;28;20057;-72
2022/03/26 01:55:27;;;;;;;;;;;;;;;5.01;88.62;103342.59;4991198;28;19922;-72
2022/03/26 01:57:53;;;;;;;;;;;;;;;5.00;89.24;103343.44;4990468;28;19921;-71
2022/03/26 02:00:18;;;;;;;;;;;;;;;5.00;89.38;103348.66;4989722;28;19918;-72
2022/03/26 02:02:44;;;;;;;;;;;;;;;4.95;89.11;103336.41;4988509;28;20800;-72
2022/03/26 02:05:11;;;;;;;;;;;;;;;4.97;89.29;103348.59;4990245;28;19925;-71
2022/03/26 02:07:38;;;;;;;;;;;;;;;4.90;89.72;103345.00;4990173;28;19924;-71
2022/03/26 02:10:03;;;;;;;;;;;;;;;4.92;89.55;103351.09;4990805;28;19973;-71
2022/03/26 02:12:29;;;;;;;;;;;;;;;4.91;90.27;103349.34;4990675;28;20280;-72
2022/03/26 02:14:55;;;;;;;;;;;;;;;4.92;90.21;103340.69;4990704;28;19945;-72
2022/03/26 02:17:20;;;;;;;;;;;;;;;4.89;90.31;103335.41;4989980;28;19992;-72
2022/03/26 02:19:48;;;;;;;;;;;;;;;4.85;90.18;103336.22;4989875;28;19918;-72
2022/03/26 02:22:13;;;;;;;;;;;;;;;4.82;90.78;103337.03;4990099;28;19949;-71
2022/03/26 02:24:38;;;;;;;;;;;;;;;4.82;90.89;103333.56;5006726;28;19968;-72
2022/03/26 02:27:06;;;;;;;;;;;;;;;4.76;91.14;103327.38;5005206;28;19940;-72
2022/03/26 02:29:31;;;;;;;;;;;;;;;4.73;91.08;103324.75;4990471;28;19922;-73
2022/03/26 02:31:56;;;;;;;;;;;;;;;4.70;90.74;103324.69;4989286;28;20348;-73
2022/03/26 02:34:24;;;;;;;;;;;;;;;4.66;90.99;103330.69;4989433;28;19933;-71
2022/03/26 02:36:53;;;;;;;;;;;;;;;4.63;91.39;103328.03;4989578;28;20016;-72
2022/03/26 02:39:18;;;;;;;;;;;;;;;4.60;90.79;103330.56;4989992;28;20365;-73
2022/03/26 02:41:43;;;;;;;;;;;;;;;4.64;92.03;103335.88;4989787;28;19960;-73
2022/03/26 02:44:09;;;;;;;;;;;;;;;4.61;91.62;103329.72;4990472;28;19917;-74
2022/03/26 02:46:36;;;;;;;;;;;;;;;4.61;91.74;103327.13;4990302;28;19918;-74
2022/03/26 02:49:01;;;;;;;;;;;;;;;4.59;91.89;103326.22;4990661;28;20363;-72
2022/03/26 02:51:27;;;;;;;;;;;;;;;4.58;92.21;103322.72;4990170;28;19964;-72
2022/03/26 02:53:52;;;;;;;;;;;;;;;4.55;91.79;103321.78;4990144;28;19922;-72
2022/03/26 02:56:19;;;;;;;;;;;;;;;4.51;91.65;103322.59;4989556;28;19922;-72
2022/03/26 02:58:45;;;;;;;;;;;;;;;4.47;91.93;103319.94;4989744;28;19922;-72
2022/03/26 03:01:12;;;;;;;;;;;;;;;4.47;92.24;103321.63;4989192;28;19963;-73
2022/03/26 03:03:37;;;;;;;;;;;;;;;4.49;92.72;103317.34;4989324;28;19922;-73
2022/03/26 03:06:02;;;;;;;;;;;;;;;4.44;92.86;103322.47;4989078;28;20361;-72
2022/03/26 03:08:28;;;;;;;;;;;;;;;4.40;92.82;103318.06;4988118;28;19922;-73
2022/03/26 03:10:53;;;;;;;;;;;;;;;4.39;93.06;103318.91;4988956;28;19917;-73
2022/03/26 03:13:21;;;;;;;;;;;;;;;4.39;93.20;103318.91;4988242;28;20447;-73
2022/03/26 03:15:46;;;;;;;;;;;;;;;4.38;93.12;103317.16;4987782;28;20385;-71
2022/03/26 03:18:12;;;;;;;;;;;;;;;4.37;93.22;103322.31;4988797;28;19922;-72
2022/03/26 03:20:37;;;;;;;;;;;;;;;4.35;93.68;103326.63;4989709;28;19968;-73
2022/03/26 03:23:03;;;;;;;;;;;;;;;4.40;94.34;103322.38;4990138;28;19918;-72
2022/03/26 03:25:29;;;;;;;;;;;;;;;4.38;94.29;103314.56;4990715;28;19937;-72
2022/03/26 03:27:55;;;;;;;;;;;;;;;4.35;94.23;103319.69;4989987;28;20374;-72
2022/03/26 03:30:20;;;;;;;;;;;;;;;4.36;94.39;103321.44;4989386;28;19925;-73
2022/03/26 03:32:45;;;;;;;;;;;;;;;4.37;94.97;103318.00;5002949;28;20020;-73
2022/03/26 03:35:11;;;;;;;;;;;;;;;4.33;94.75;103316.16;5005936;28;19926;-71
2022/03/26 03:37:37;;;;;;;;;;;;;;;4.35;95.41;103327.50;5008993;28;20361;-73
2022/03/26 03:40:03;;;;;;;;;;;;;;;4.37;95.89;103324.91;5009022;28;19921;-72
2022/03/26 03:42:28;;;;;;;;;;;;;;;4.36;95.96;103326.66;4990585;28;20425;-72
2022/03/26 03:44:54;;;;;;;;;;;;;;;4.35;96.08;103321.44;5009789;28;20004;-72
2022/03/26 03:47:19;;;;;;;;;;;;;;;4.32;95.94;103315.31;5007368;28;19974;-72
2022/03/26 03:49:44;;;;;;;;;;;;;;;4.30;96.31;103318.75;5008560;28;19917;-72
2022/03/26 03:52:09;;;;;;;;;;;;;;;4.27;96.06;103321.28;5001791;28;19918;-73
2022/03/26 03:54:35;;;;;;;;;;;;;;;4.32;96.97;103323.13;4989138;28;19957;-72
2022/03/26 03:57:00;;;;;;;;;;;;;;;4.33;97.55;103321.38;4989549;28;19922;-71
2022/03/26 03:59:25;;;;;;;;;;;;;;;4.30;97.36;103322.19;4987137;28;19973;-72
2022/03/26 04:01:50;;;;;;;;;;;;;;;4.28;97.41;103321.28;4987966;28;19921;-73
2022/03/26 04:04:16;;;;;;;;;;;;;;;4.25;97.29;103320.34;4987867;28;19932;-72
2022/03/26 04:06:42;;;;;;;;;;;;;;;4.22;97.38;103315.97;4987991;28;20350;-73
2022/03/26 04:09:07;;;;;;;;;;;;;;;4.24;97.56;103313.41;4987630;28;19922;-72
2022/03/26 04:11:32;;;;;;;;;;;;;;;4.21;97.67;103316.81;4989249;28;20296;-73
2022/03/26 04:13:57;;;;;;;;;;;;;;;4.19;97.97;103318.50;4989440;28;19925;-73
2022/03/26 04:16:23;;;;;;;;;;;;;;;4.14;97.82;103321.03;4992552;28;19969;-72
2022/03/26 04:18:48;;;;;;;;;;;;;;;4.13;97.72;103316.66;4991971;28;20393;-73
2022/03/26 04:21:14;;;;;;;;;;;;;;;4.15;98.05;103317.56;4992483;28;19918;-73
2022/03/26 04:23:40;;;;;;;;;;;;;;;4.15;98.25;103317.56;4992995;28;19922;-72
2022/03/26 04:26:06;;;;;;;;;;;;;;;4.15;98.18;103320.19;4996036;28;20392;-72
2022/03/26 04:28:31;;;;;;;;;;;;;;;4.16;98.29;103313.22;5012743;28;19925;-73
2022/03/26 04:30:57;;;;;;;;;;;;;;;4.10;98.01;103316.59;5010599;28;19917;-73
2022/03/26 04:33:22;;;;;;;;;;;;;;;4.12;98.47;103314.91;4991472;28;19971;-72
2022/03/26 04:35:47;;;;;;;;;;;;;;;4.08;97.89;103322.63;4992640;28;20463;-72
2022/03/26 04:38:13;;;;;;;;;;;;;;;3.99;97.91;103318.09;4992431;28;19968;-73
2022/03/26 04:40:38;;;;;;;;;;;;;;;4.00;98.17;103317.25;4993067;28;19918;-73
2022/03/26 04:43:03;;;;;;;;;;;;;;;4.00;98.30;103309.44;4992537;28;20324;-73
2022/03/26 04:45:30;;;;;;;;;;;;;;;3.92;98.22;103304.06;4992678;28;20369;-73
2022/03/26 04:47:55;;;;;;;;;;;;;;;3.89;98.22;103301.44;4991840;28;20340;-73
2022/03/26 04:50:20;;;;;;;;;;;;;;;3.86;98.64;103302.22;4992182;28;19922;-72
2022/03/26 04:52:47;;;;;;;;;;;;;;;3.84;98.38;103303.94;4991985;28;20433;-73
2022/03/26 04:55:13;;;;;;;;;;;;;;;3.84;98.35;103308.25;4991675;28;19945;-73
2022/03/26 04:57:40;;;;;;;;;;;;;;;3.78;98.28;103309.00;4992086;28;19926;-74
2022/03/26 05:00:06;;;;;;;;;;;;;;;3.76;98.58;103305.47;4991646;28;20008;-73
2022/03/26 05:02:32;;;;;;;;;;;;;;;3.74;98.62;103307.19;4986710;28;20008;-73
2022/03/26 05:04:57;;;;;;;;;;;;;;;3.72;98.75;103301.94;4992447;28;19918;-72
2022/03/26 05:10:03;;;;;;;;;;;;;;;3.71;98.65;103301.91;4990401;28;19930;-73
2022/03/26 05:12:28;;;;;;;;;;;;;;;3.70;98.79;103301.00;4991840;28;19980;-72
2022/03/26 05:14:53;;;;;;;;;;;;;;;3.69;98.36;103309.66;4991961;28;19918;-73
2022/03/26 05:17:19;;;;;;;;;;;;;;;3.66;98.79;103300.91;4991492;28;19929;-73
2022/03/26 05:19:44;;;;;;;;;;;;;;;3.64;98.86;103306.09;4991596;28;19957;-72
2022/03/26 05:22:09;;;;;;;;;;;;;;;3.60;99.06;103300.78;4990799;28;19918;-73
2022/03/26 05:24:34;;;;;;;;;;;;;;;3.57;99.13;103301.63;4992032;28;20469;-72
2022/03/26 05:27:00;;;;;;;;;;;;;;;3.53;99.31;103303.25;4990749;28;19944;-73
2022/03/26 05:29:25;;;;;;;;;;;;;;;3.55;99.19;103305.91;4990941;28;19918;-72
2022/03/26 05:31:51;;;;;;;;;;;;;;;3.55;99.55;103306.75;4987966;28;19929;-73
2022/03/26 05:34:16;;;;;;;;;;;;;;;3.65;99.71;103305.25;4981960;28;20061;-72
2022/03/26 05:36:42;;;;;;;;;;;;;;;3.71;99.51;103304.50;4989714;28;19997;-73
2022/03/26 05:39:07;;;;;;;;;;;;;;;3.74;99.73;103306.28;4990799;28;19926;-73
2022/03/26 05:41:32;;;;;;;;;;;;;;;3.77;99.69;103306.38;4973560;28;19917;-74
2022/03/26 05:43:59;;;;;;;;;;;;;;;3.78;100.00;103302.94;4995189;28;20381;-72
2022/03/26 05:46:24;;;;;;;;;;;;;;;3.79;99.58;103307.28;4990850;28;19918;-73
2022/03/26 05:48:49;;;;;;;;;;;;;;;3.79;98.97;103322.88;4969884;28;20384;-72
2022/03/26 05:51:14;;;;;;;;;;;;;;;3.80;98.94;103311.66;4989885;28;19968;-72
2022/03/26 05:53:40;;;;;;;;;;;;;;;3.81;98.43;103314.25;4990420;28;19925;-72
2022/03/26 05:56:05;;;;;;;;;;;;;;;3.84;98.53;103314.34;4990538;28;20095;-77
2022/03/26 05:58:31;;;;;;;;;;;;;;;3.90;98.30;103317.91;4991012;28;19925;-74
2022/03/26 06:00:56;;;;;;;;;;;;;;;3.94;98.36;103319.72;4987575;28;20013;-72
2022/03/26 06:03:21;;;;;;;;;;;;;;;4.00;98.59;103323.34;4990095;28;19921;-73
2022/03/26 06:05:47;;;;;;;;;;;;;;;4.07;98.39;103329.56;4990365;28;19968;-71
2022/03/26 06:08:13;;;;;;;;;;;;;;;4.14;98.35;103336.63;4989438;28;19918;-72
2022/03/26 06:10:38;;;;;;;;;;;;;;;4.21;98.38;103324.63;4989944;28;19922;-73
2022/03/26 06:13:04;;;;;;;;;;;;;;;4.28;97.95;103336.03;4989336;28;20356;-72
2022/03/26 06:15:29;;;;;;;;;;;;;;;4.35;97.94;103344.84;4992011;28;19944;-72
2022/03/26 06:17:54;;;;;;;;;;;;;;;4.44;98.02;103338.09;5004885;28;19988;-73
2022/03/26 06:20:19;;;;;;;;;;;;;;;4.56;97.67;103336.56;4989523;28;20042;-73
2022/03/26 06:22:45;;;;;;;;;;;;;;;4.64;97.36;103335.88;4989681;28;20304;-73
2022/03/26 06:25:10;;;;;;;;;;;;;;;4.75;97.19;103340.38;4987585;28;19917;-73
2022/03/26 06:27:35;;;;;;;;;;;;;;;4.82;96.70;103336.16;5003238;28;20013;-73
2022/03/26 06:30:01;;;;;;;;;;;;;;;4.98;97.16;103340.78;4988122;28;19933;-72
2022/03/26 06:32:27;;;;;;;;;;;;;;;5.05;96.51;103345.28;4980500;28;19921;-73
2022/03/26 06:34:52;;;;;;;;;;;;;;;5.16;96.67;103345.44;4984468;28;19936;-73
2022/03/26 06:37:20;;;;;;;;;;;;;;;5.28;96.54;103342.16;4989161;28;20045;-73
2022/03/26 06:39:45;;;;;;;;;;;;;;;5.39;95.55;103344.91;4990452;28;19921;-73
2022/03/26 06:42:10;;;;;;;;;;;;;;;5.51;95.64;103345.13;4990079;28;19972;-72
2022/03/26 06:44:36;;;;;;;;;;;;;;;5.64;96.10;103351.38;4990961;28;19925;-73
2022/03/26 06:47:01;;;;;;;;;;;;;;;5.73;95.70;103345.44;4990006;28;19925;-74
2022/03/26 06:49:30;;;;;;;;;;;;;;;5.86;95.14;103352.56;4990533;28;19918;-73
2022/03/26 06:51:55;;;;;;;;;;;;;;;6.02;95.00;103353.69;4989800;28;19928;-73
2022/03/26 06:54:21;;;;;;;;;;;;;;;6.15;94.61;103352.09;4989485;28;19918;-72
2022/03/26 06:56:46;;;;;;;;;;;;;;;6.26;94.58;103354.84;4990445;28;19945;-74
2022/03/26 06:59:11;;;;;;;;;;;;;;;6.39;94.39;103365.44;4989128;28;19925;-73
2022/03/26 07:01:36;;;;;;;;;;;;;;;6.51;94.28;103362.94;4989968;28;19922;-72
2022/03/26 07:04:02;;;;;;;;;;;;;;;6.64;93.51;103370.06;4988768;28;19992;-73
2022/03/26 07:06:27;;;;;;;;;;;;;;;6.78;94.28;103366.72;4989997;28;19922;-72
2022/03/26 07:08:53;;;;;;;;;;;;;;;6.90;93.81;103369.47;4989395;28;19926;-73
2022/03/26 07:11:19;;;;;;;;;;;;;;;7.01;92.93;103371.31;4989370;28;19918;-73
2022/03/26 07:13:44;;;;;;;;;;;;;;;7.09;92.44;103372.25;4990844;28;20288;-72
2022/03/26 07:16:09;;;;;;;;;;;;;;;7.17;92.35;103367.94;4989503;28;19926;-73
2022/03/26 07:18:35;;;;;;;;;;;;;;;7.27;91.88;103366.28;4990187;28;19998;-72
2022/03/26 07:21:00;;;;;;;;;;;;;;;7.35;90.68;103372.44;4989121;28;19925;-72
2022/03/26 07:23:26;;;;;;;;;;;;;;;7.49;89.86;103369.06;4989833;28;20397;-73
2022/03/26 07:25:51;;;;;;;;;;;;;;;7.55;89.27;103372.59;4989872;28;20385;-73
2022/03/26 07:28:17;;;;;;;;;;;;;;;7.70;88.70;103363.13;4989150;28;19917;-74
2022/03/26 07:30:42;;;;;;;;;;;;;;;7.83;87.82;103359.69;4972952;28;20389;-74
2022/03/26 07:33:08;;;;;;;;;;;;;;;7.97;87.33;103364.13;4988066;28;19991;-73
2022/03/26 07:35:33;;;;;;;;;;;;;;;8.00;86.26;103361.53;5009045;28;20342;-73
2022/03/26 07:37:58;;;;;;;;;;;;;;;8.09;85.45;103355.47;5008793;28;20342;-72
2022/03/26 07:40:24;;;;;;;;;;;;;;;8.18;83.07;103351.13;5008634;28;19972;-72
2022/03/26 07:42:49;;;;;;;;;;;;;;;8.28;82.94;103346.81;5008885;28;19917;-73
2022/03/26 07:45:14;;;;;;;;;;;;;;;8.37;82.47;103351.22;5009479;28;19960;-73
2022/03/26 07:47:39;;;;;;;;;;;;;;;8.55;82.19;103347.78;5009581;28;20299;-72
2022/03/26 07:50:06;;;;;;;;;;;;;;;8.59;81.22;103340.81;5009701;28;19926;-72
2022/03/26 07:52:31;;;;;;;;;;;;;;;8.71;80.53;103338.19;5005347;28;19977;-72
2022/03/26 07:54:56;;;;;;;;;;;;;;;8.84;80.44;103343.44;4993412;28;20020;-73
2022/03/26 07:57:22;;;;;;;;;;;;;;;8.93;80.05;103344.34;4993254;28;20397;-72
2022/03/26 07:59:47;;;;;;;;;;;;;;;9.11;79.73;103351.34;4993207;28;19922;-73
2022/03/26 08:02:12;;;;;;;;;;;;;;;9.23;79.67;103360.09;4992225;28;20661;-73
2022/03/26 08:04:38;;;;;;;;;;;;;;;9.31;80.10;103362.72;4995245;28;19926;-73
2022/03/26 08:07:03;;;;;;;;;;;;;;;9.43;80.40;103360.06;4975106;28;20306;-72
2022/03/26 08:09:29;;;;;;;;;;;;;;;9.54;78.92;103355.66;4993443;28;19945;-72
2022/03/26 08:11:54;;;;;;;;;;;;;;;9.67;77.65;103350.38;4992988;28;19922;-74
2022/03/26 08:14:19;;;;;;;;;;;;;;;9.75;76.17;103348.66;4992765;28;20399;-73
2022/03/26 08:16:44;;;;;;;;;;;;;;;9.82;74.33;103333.72;4994504;28;19922;-73
2022/03/26 08:19:10;;;;;;;;;;;;;;;9.90;74.07;103338.06;4991797;28;19957;-72
2022/03/26 08:21:35;;;;;;;;;;;;;;;9.98;74.36;103345.94;4993396;28;19961;-72
2022/03/26 08:24:02;;;;;;;;;;;;;;;10.15;75.58;103343.22;4991955;28;19929;-72
2022/03/26 08:26:29;;;;;;;;;;;;;;;10.34;75.29;103361.53;4994790;28;19972;-72
2022/03/26 08:28:55;;;;;;;;;;;;;;;10.39;73.97;103362.44;4973145;28;19918;-71
2022/03/26 08:31:22;;;;;;;;;;;;;;;10.43;74.19;103355.38;4977207;28;20009;-73
2022/03/26 08:33:47;;;;;;;;;;;;;;;11.09;73.40;103361.94;4992788;28;19921;-73
2022/03/26 08:36:13;;;;;;;;;;;;;;;12.42;70.33;103344.69;4992001;28;19922;-72
2022/03/26 08:38:39;;;;;;;;;;;;;;;13.76;64.58;103309.00;4994397;28;20010;-71
2022/03/26 08:41:05;;;;;;;;;;;;;;;15.01;60.84;103307.94;4992115;28;20004;-73
2022/03/26 08:43:30;;;;;;;;;;;;;;;15.88;56.72;103298.47;4994010;28;19925;-73
2022/03/26 08:45:55;;;;;;;;;;;;;;;17.33;51.24;103283.19;4991790;28;19924;-72
2022/03/26 08:48:21;;;;;;;;;;;;;;;17.30;49.87;103401.94;4990760;28;20436;-72
2022/03/26 08:50:46;;;;;;;;;;;;;;;18.77;46.70;103408.06;4991763;28;19918;-72
2022/03/26 08:53:11;;;;;;;;;;;;;;;20.24;43.02;103407.97;4991571;28;19922;-72
2022/03/26 08:55:36;;;;;;;;;;;;;;;20.46;42.67;103406.06;4993577;28;19921;-73
2022/03/26 08:58:02;;;;;;;;;;;;;;;20.02;41.65;103410.75;4991431;28;20423;-72
2022/03/26 09:00:28;;;;;;;;;;;;;;;19.87;41.83;103423.00;4991197;28;19945;-72
2022/03/26 09:02:54;;;;;;;;;;;;;;;18.99;42.99;103426.75;4989228;28;20006;-72
2022/03/26 09:05:19;;;;;;;;;;;;;;;20.62;39.88;103415.09;4990667;28;19925;-72
2022/03/26 09:07:45;;;;;;;;;;;;;;;20.45;40.43;103410.56;4991999;28;19964;-71
2022/03/26 09:10:10;;;;;;;;;;;;;;;20.39;40.60;103408.19;4990932;28;19918;-73
2022/03/26 09:12:35;;;;;;;;;;;;;;;19.22;42.36;103428.44;4989992;28;19953;-72
2022/03/26 09:15:01;;;;;;;;;;;;;;;19.41;42.29;103427.66;4991072;28;19972;-75
2022/03/26 09:17:26;;;;;;;;;;;;;;;18.93;43.64;103435.88;4993826;28;20434;-71
2022/03/26 09:19:52;;;;;;;;;;;;;;;19.46;42.79;103428.34;4991735;28;19981;-72
2022/03/26 09:22:17;;;;;;;;;;;;;;;19.52;42.62;103428.06;4990876;28;19922;-73
2022/03/26 09:24:43;;;;;;;;;;;;;;;19.82;41.72;103433.00;4991863;28;19926;-71
2022/03/26 09:27:09;;;;;;;;;;;;;;;19.29;43.26;103431.72;5002174;28;20517;-72
2022/03/26 09:29:35;;;;;;;;;;;;;;;20.85;40.53;103424.66;5006603;28;20403;-74
2022/03/26 09:32:00;;;;;;;;;;;;;;;20.87;40.02;103426.41;4993580;28;19926;-74
2022/03/26 09:34:25;;;;;;;;;;;;;;;19.13;42.77;103435.03;5011236;28;20641;-72
2022/03/26 09:36:53;;;;;;;;;;;;;;;19.35;43.63;103438.59;4991076;28;19969;-74
2022/03/26 09:39:18;;;;;;;;;;;;;;;19.19;43.63;103441.91;4991373;28;20023;-73
2022/03/26 09:41:44;;;;;;;;;;;;;;;19.82;41.76;103421.44;4991998;28;20349;-75
2022/03/26 09:44:11;;;;;;;;;;;;;;;19.61;40.90;103413.47;4990763;28;19925;-72
2022/03/26 09:46:36;;;;;;;;;;;;;;;19.41;41.76;103420.53;4993277;28;19917;-73
2022/03/26 09:49:03;;;;;;;;;;;;;;;19.84;41.29;103415.13;4990375;28;20292;-72
2022/03/26 09:51:28;;;;;;;;;;;;;;;20.55;39.74;103409.16;4992938;28;20347;-72
2022/03/26 09:53:54;;;;;;;;;;;;;;;19.74;40.16;103420.00;5005725;28;19918;-73
2022/03/26 09:56:19;;;;;;;;;;;;;;;21.71;37.45;103415.03;4990501;28;20373;-73
2022/03/26 09:58:45;;;;;;;;;;;;;;;20.19;40.41;103419.81;5022468;28;19965;-73
2022/03/26 10:01:10;;;;;;;;;;;;;;;20.06;39.73;103406.16;4984700;28;20362;-72
2022/03/26 10:03:39;;;;;;;;;;;;;;;19.86;39.94;103415.94;4972564;28;19922;-72
2022/03/26 10:06:07;;;;;;;;;;;;;;;20.79;37.80;103408.94;4970193;28;19918;-73
2022/03/26 10:08:34;;;;;;;;;;;;;;;21.44;36.08;103404.81;5002726;28;20009;-74
2022/03/26 10:10:59;;;;;;;;;;;;;;;20.27;38.87;103409.63;4972446;28;20342;-74
2022/03/26 10:13:40;;;;;;;;;;;;;;;21.00;37.54;103407.00;4969987;28;20009;-74
2022/03/26 10:16:06;;;;;;;;;;;;;;;21.95;36.85;103406.63;4970378;28;19922;-74
2022/03/26 10:18:35;;;;;;;;;;;;;;;23.20;33.36;103402.25;4972859;28;19918;-73
2022/03/26 10:21:01;;;;;;;;;;;;;;;22.70;34.43;103405.13;4970712;28;20329;-73
2022/03/26 10:23:28;;;;;;;;;;;;;;;22.72;34.60;103404.13;4978562;28;20005;-73
2022/03/26 10:26:09;;;;;;;;;;;;;;;23.23;33.07;103402.06;4991214;28;19921;-73
2022/03/26 10:28:34;;;;;;;;;;;;;;;22.34;34.94;103408.03;4990768;28;20313;-74
2022/03/26 10:34:04;;;;;;;;;;;;;;;20.47;35.94;103402.47;4979966;28;19933;-72
2022/03/26 10:36:29;;;;;;;;;;;;;;;21.44;34.60;103403.00;5009131;28;19929;-71
2022/03/26 10:38:54;;;;;;;;;;;;;;;20.44;35.24;103399.97;4991708;28;20324;-71
2022/03/26 10:41:20;;;;;;;;;;;;;;;21.12;35.30;103399.28;5009341;28;19926;-71
2022/03/26 10:43:46;;;;;;;;;;;;;;;20.41;36.40;103402.78;5011287;28;19960;-72
2022/03/26 10:46:11;;;;;;;;;;;;;;;21.45;34.88;103398.50;5009344;28;20029;-73
2022/03/26 10:48:37;;;;;;;;;;;;;;;21.42;34.17;103390.66;5009801;28;19949;-71
2022/03/26 10:51:06;;;;;;;;;;;;;;;20.27;36.42;103387.41;5009778;28;19917;-72
2022/03/26 10:53:49;;;;;;;;;;;;;;;19.88;37.28;103395.38;4993775;28;19922;-71
2022/03/26 10:56:15;;;;;;;;;;;;;;;19.46;37.52;103399.00;4988767;28;19932;-72
2022/03/26 10:58:41;;;;;;;;;;;;;;;18.67;39.50;103399.63;4991925;28;20379;-72
2022/03/26 11:01:07;;;;;;;;;;;;;;;18.06;40.80;103401.06;4989294;28;19933;-72
2022/03/26 11:03:34;;;;;;;;;;;;;;;17.92;41.75;103406.88;4991026;28;20309;-72
2022/03/26 11:06:00;;;;;;;;;;;;;;;18.29;40.92;103400.19;4988404;28;19948;-72
2022/03/26 11:08:30;;;;;;;;;;;;;;;18.16;41.20;103398.94;4988249;28;19968;-70
2022/03/26 11:10:56;;;;;;;;;;;;;;;17.61;42.98;103408.00;4986188;28;19918;-72
2022/03/26 11:13:23;;;;;;;;;;;;;;;17.50;42.47;103404.84;4988533;28;19969;-71
2022/03/26 11:15:54;;;;;;;;;;;;;;;16.99;43.46;103399.44;4991217;28;19977;-72
2022/03/26 11:18:23;;;;;;;;;;;;;;;17.04;43.20;103394.84;4988688;28;19929;-72
2022/03/26 11:21:03;;;;;;;;;;;;;;;16.79;43.73;103395.63;4990937;28;19921;-72
2022/03/26 11:23:29;;;;;;;;;;;;;;;16.75;45.24;103401.09;4987449;28;20012;-73
2022/03/26 11:26:10;;;;;;;;;;;;;;;16.84;43.65;103393.69;4992441;28;19918;-73
2022/03/26 11:28:43;;;;;;;;;;;;;;;16.91;44.48;103396.16;4995008;28;21056;-73
2022/03/26 11:31:12;;;;;;;;;;;;;;;16.90;44.57;103389.97;4986390;28;19926;-73
2022/03/26 11:33:38;;;;;;;;;;;;;;;17.20;43.22;103383.72;4992071;28;19944;-73
2022/03/26 11:36:05;;;;;;;;;;;;;;;16.64;43.72;103394.34;5009149;28;20600;-73
2022/03/26 11:38:31;;;;;;;;;;;;;;;16.72;42.98;103387.91;5008518;28;19932;-71
2022/03/26 11:40:57;;;;;;;;;;;;;;;16.99;43.91;103389.69;5009710;28;19918;-72
2022/03/26 11:43:38;;;;;;;;;;;;;;;16.76;43.04;103384.25;5007399;28;20016;-73
2022/03/26 11:51:27;;;;;;;;;;;;;;;16.95;44.55;103380.09;4986351;28;19949;-72
2022/03/26 11:54:07;;;;;;;;;;;;;;;16.87;43.34;103375.94;4972267;28;20032;-73
2022/03/26 11:56:33;;;;;;;;;;;;;;;16.81;43.73;103377.00;4969671;28;20001;-73
2022/03/26 11:59:14;;;;;;;;;;;;;;;16.49;44.87;103385.06;4971025;28;20078;-73
2022/03/26 12:01:42;;;;;;;;;;;;;;;16.48;45.03;103380.66;4976962;28;19944;-74
2022/03/26 12:04:09;;;;;;;;;;;;;;;16.27;45.17;103386.63;4990310;28;20355;-73
2022/03/26 12:06:49;;;;;;;;;;;;;;;16.42;45.04;103383.53;4989436;28;19918;-73
2022/03/26 12:09:30;;;;;;;;;;;;;;;16.17;45.18;103368.34;4989599;28;19928;-76
2022/03/26 12:12:11;;;;;;;;;;;;;;;16.09;46.04;103375.69;4988777;28;19980;-74
2022/03/26 12:14:52;;;;;;;;;;;;;;;16.27;45.86;103376.03;4988768;28;19917;-74
2022/03/26 12:17:37;;;;;;;;;;;;;;;16.05;45.46;103366.06;4989135;28;20289;-78
2022/03/26 12:20:18;;;;;;;;;;;;;;;16.04;46.05;103369.63;4987317;28;19922;-76
2022/03/26 12:22:43;;;;;;;;;;;;;;;16.12;45.82;103362.31;4989552;28;20442;-74
2022/03/26 12:25:09;;;;;;;;;;;;;;;16.19;45.27;103369.19;4986383;28;19965;-73
2022/03/26 12:27:38;;;;;;;;;;;;;;;16.02;45.52;103358.19;4980691;28;20274;-73
2022/03/26 12:30:03;;;;;;;;;;;;;;;16.14;44.96;103357.81;4977982;28;19918;-73
2022/03/26 12:32:29;;;;;;;;;;;;;;;16.26;44.27;103356.56;4981240;28;19988;-74
2022/03/26 12:34:56;;;;;;;;;;;;;;;16.25;45.08;103353.97;4985934;28;20080;-77
2022/03/26 12:37:22;;;;;;;;;;;;;;;16.15;44.25;103351.59;4991740;28;19930;-74
2022/03/26 12:39:47;;;;;;;;;;;;;;;16.02;44.63;103351.13;4992340;28;20292;-73
2022/03/26 12:42:13;;;;;;;;;;;;;;;16.23;44.74;103359.34;4998848;28;19918;-71
2022/03/26 12:44:38;;;;;;;;;;;;;;;16.28;44.67;103346.78;4999546;28;19922;-73
2022/03/26 12:47:03;;;;;;;;;;;;;;;16.25;45.12;103352.22;4993093;28;19922;-72
2022/03/26 12:49:29;;;;;;;;;;;;;;;16.22;44.89;103349.66;4995499;28;19929;-72